Nearby METAR (Airport) Reports

 

KPRN - Greenville, Alabama, USA
Distance from station: WNW 17mi, 28km
Updated: Mon, 24-Jun-2019 11:56am CDT
Clear
Clear
 Wind from SSW
Wind: SSW 14 mph , 22 km/h, Gust: 25 mph , 41 km/h
Temperature: 88°F , 31°C
Heat Index: 90°F , 32°C
Dew Point: 64°F , 18°C
Humidity: 46%
Barometer: 29.96 inHg , 1014.6 hPa
Clouds: Clear
Visibility: 10 miles , 16 km
2019/06/24 16:56 KPRN 241656Z AUTO 21012G22KT 10SM CLR 31/18 A2996 RMK AO2 SLP140 T03110183
KTOI - Troy, Alabama, USA
Distance from station: ENE 21mi, 34km
Updated: Mon, 24-Jun-2019 11:53am CDT
Clear
Clear
 Wind from SSW
Wind: SSW 14 mph , 22 km/h, Gust: 29 mph , 46 km/h
Temperature: 90°F , 32°C
Heat Index: 99°F , 37°C
Dew Point: 73°F , 23°C
Humidity: 59%
Barometer: 29.99 inHg , 1015.6 hPa
Clouds: Clear
Visibility: 10 miles , 16 km
2019/06/24 16:53 KTOI 241653Z AUTO 20012G25KT 10SM CLR 32/23 A2999 RMK AO2 SLP150 T03220233
K79J - Andalusia/Opp Ar, Alabama, USA
Distance from station: S 29mi, 47km
Updated: Mon, 24-Jun-2019 12:15pm CDT
Few Clouds
Few Clouds
 Wind from SW
Wind: SW 10 mph , 17 km/h
Temperature: 90°F , 32°C
Heat Index: 93°F , 34°C
Dew Point: 66°F , 19°C
Humidity: 46%
Barometer: 30.00 inHg , 1015.9 hPa
Clouds: Few Clouds
Visibility: 10 miles , 16 km
Cloud details: Few Clouds 4300 ft
2019/06/24 17:15 K79J 241715Z AUTO 23009KT 10SM FEW043 32/19 A3000 RMK AO2 TSE12 T03170194
 
KMGM - Montgomery, Alabama, USA
Distance from station: N 39mi, 63km
Updated: Mon, 24-Jun-2019 11:53am CDT
Clear
Clear
 Wind from SSW
Wind: SSW 14 mph , 22 km/h
Temperature: 90°F , 32°C
Heat Index: 99°F , 37°C
Dew Point: 73°F , 23°C
Humidity: 59%
Barometer: 29.95 inHg , 1014.2 hPa
Clouds: Clear
Visibility: 10 miles , 16 km
2019/06/24 16:53 KMGM 241653Z 20012KT 10SM CLR 32/23 A2995 RMK AO2 SLP138 T03170233
KMXF - Maxwell Afb/Mgm, Alabama, USA
Distance from station: N 44mi, 70km
Updated: Mon, 24-Jun-2019 11:56am CDT
Partly cloudy
Partly cloudy
 Wind from SSW
Wind: SSW 12 mph , 19 km/h, Gust: 20 mph , 31 km/h
Temperature: 90°F , 32°C
Heat Index: 101°F , 38°C
Dew Point: 75°F , 24°C
Humidity: 63%
Barometer: 29.94 inHg , 1013.9 hPa
Clouds: Partly cloudy
Visibility: 10 miles , 16 km
Cloud details: Partly cloudy 17000 ft
2019/06/24 16:56 KMXF 241656Z AUTO 21010G17KT 10SM SCT170 32/24 A2994 RMK AO2 SLP139 T03160236
KLOR - Lowe Ahp/Ft. Ruc, Alabama, USA
Distance from station: SE 44mi, 71km
Updated: Mon, 24-Jun-2019 12:35pm CDT
Few Clouds
Few Clouds
 Wind from WSW
Wind: WSW 10 mph , 17 km/h, Gust: 22 mph , 35 km/h
Temperature: 91°F , 33°C
Heat Index: 100°F , 38°C
Dew Point: 73°F , 23°C
Humidity: 56%
Barometer: 29.98 inHg , 1015.2 hPa
Clouds: Few Clouds
Visibility: 10 miles , 16 km
Cloud details: Few Clouds 4900 ft
2019/06/24 17:35 KLOR 241735Z AUTO 24009G19KT 10SM FEW049 33/23 A2998 RMK AO2 SLP133
 
KGZH - Evergreen, Alabama, USA
Distance from station: WSW 46mi, 75km
Updated: Mon, 24-Jun-2019 11:53am CDT
Clear
Clear
 Wind from SSW
Wind: SSW 9 mph , 15 km/h
Temperature: 82°F , 28°C
Heat Index: 86°F , 30°C
Dew Point: 70°F , 21°C
Humidity: 66%
Barometer: 29.98 inHg , 1015.2 hPa
Clouds: Clear
Visibility: 10 miles , 16 km
2019/06/24 16:53 KGZH 241653Z AUTO 21008KT 10SM CLR 28/21 A2998 RMK AO2 LTG DSNT SE TSE06 SLP149 T02830211
K0J4 - Florala Muni, Alabama, USA
Distance from station: S 47mi, 76km
Updated: Mon, 24-Jun-2019 11:58am CDT
Few Clouds
Few Clouds
 Wind from SW
Wind: SW 8 mph , 13 km/h, Gust: 18 mph , 30 km/h
Temperature: 91°F , 33°C
Heat Index: 98°F , 37°C
Dew Point: 72°F , 22°C
Humidity: 52%
Barometer: 30.02 inHg , 1016.6 hPa
Clouds: Few Clouds
Visibility: 10 miles , 16 km
Cloud details: Few Clouds 3900 ft
Few Clouds 5000 ft
2019/06/24 16:58 K0J4 241658Z AUTO 22007G16KT 10SM FEW039 FEW050 33/22 A3002 RMK AO2 SLP161 T03280222 $
KOZR - Ozark/Cairns Aaf, Alabama, USA
Distance from station: SE 49mi, 78km
Updated: Mon, 24-Jun-2019 12:40pm CDT
Partly cloudy
Partly cloudy
 Wind from SW
Wind: SW 9 mph , 15 km/h, Gust: 22 mph , 35 km/h
Temperature: 93°F , 34°C
Heat Index: 100°F , 38°C
Dew Point: 72°F , 22°C
Humidity: 49%
Barometer: 29.98 inHg , 1015.2 hPa
Clouds: Partly cloudy
Visibility: 10 miles , 16 km
Cloud details: Few Clouds 12000 ft
Partly cloudy 15000 ft
2019/06/24 17:40 KOZR 241740Z AUTO 23008G19KT 10SM FEW120 SCT150 34/22 A2998 RMK AO2 SLPNO
 
KHEY - Ft Rucker/Hanche, Alabama, USA
Distance from station: ESE 49mi, 79km
Updated: Mon, 24-Jun-2019 11:58am CDT
Partly cloudy
Partly cloudy
 Wind from WSW
Wind: WSW 7 mph , 11 km/h
Temperature: 90°F , 32°C
Heat Index: 99°F , 37°C
Dew Point: 73°F , 23°C
Humidity: 59%
Barometer: 29.99 inHg , 1015.6 hPa
Clouds: Partly cloudy
Visibility: 10 miles , 16 km
Cloud details: Few Clouds 4700 ft
Partly cloudy 5500 ft
Partly cloudy 27000 ft
2019/06/24 16:58 KHEY 241658Z AUTO 24006KT 10SM FEW047 SCT055 SCT270 32/23 A2999 RMK AO2 SLPNO T03240232
KDHN - Dothan, Alabama, USA
Distance from station: ESE 61mi, 97km
Updated: Mon, 24-Jun-2019 11:53am CDT
Mostly cloudy
Mostly cloudy
 Wind from WSW
Wind: WSW 15 mph , 24 km/h, Gust: 25 mph , 41 km/h
Temperature: 93°F , 34°C
Heat Index: 97°F , 36°C
Dew Point: 68°F , 20°C
Humidity: 44%
Barometer: 30.04 inHg , 1017.3 hPa
Clouds: Mostly cloudy
Visibility: 10 miles , 16 km
Cloud details: Few Clouds 4200 ft
Partly cloudy 5000 ft
Mostly cloudy 6000 ft
2019/06/24 16:53 KDHN 241653Z 24013G22KT 10SM FEW042 SCT050 BKN060 34/20 A3004 RMK AO2 SLP165 T03440200
KCEW - Crestview, Florida, USA
Distance from station: S 66mi, 107km
Updated: Mon, 24-Jun-2019 11:53am CDT
Mostly cloudy
Mostly cloudy
 Wind from WSW
Wind: WSW 12 mph , 19 km/h
Temperature: 91°F , 33°C
Heat Index: 98°F , 37°C
Dew Point: 72°F , 22°C
Humidity: 52%
Barometer: 30.02 inHg , 1016.6 hPa
Clouds: Mostly cloudy
Visibility: 10 miles , 16 km
Cloud details: Partly cloudy 4100 ft
Mostly cloudy 5000 ft
2019/06/24 16:53 KCEW 241653Z AUTO 24010KT 10SM SCT041 BKN050 33/22 A3002 RMK AO2 LTG DSNT N SLP162 T03330222 $
 
KEUF - Eufaula, Alabama, USA
Distance from station: ENE 73mi, 118km
Updated: Mon, 04-Mar-2019 12:58pm CST
NOT Current

 
Barometer: 30.10 inHg , 1019.3 hPa
2019/03/04 18:58 KEUF 041858Z AUTO A3010 RMK AO2 RAEMM TSB02B32 SLPNO PWINO FZRANO TSNO $
KJKA - Gulf Shores, Alabama, USA
Distance from station: SSW 132mi, 212km
Updated: Mon, 24-Jun-2019 12:35pm CDT
Clear
Clear
 Wind from WSW
Wind: WSW 16 mph , 26 km/h
Temperature: 86°F , 30°C
Heat Index: 95°F , 35°C
Dew Point: 75°F , 24°C
Humidity: 70%
Barometer: 30.02 inHg , 1016.6 hPa
Clouds: Clear
Visibility: 10 miles , 16 km
2019/06/24 17:35 KJKA 241735Z AUTO 24014KT 10SM CLR 30/24 A3002 RMK AO2 LTG DSNT S T03030241
KLSF - Ft Benning/Colum, Georgia, USA
Distance from station: SNE 89mi, 143km
Updated: Mon, 24-Jun-2019 11:56am CDT
Partly cloudy
Partly cloudy
 Wind from S
Wind: S 10 mph , 17 km/h
Temperature: 90°F , 32°C
Heat Index: 101°F , 38°C
Dew Point: 75°F , 24°C
Humidity: 63%
Barometer: 29.97 inHg , 1014.9 hPa
Clouds: Partly cloudy
Visibility: 10 miles , 16 km
Cloud details: Few Clouds 4000 ft
Few Clouds 14000 ft
Partly cloudy 20000 ft
2019/06/24 16:56 KLSF 241656Z AUTO 19009KT 10SM FEW040 FEW140 SCT200 32/24 A2997 RMK AO2 SLP151 T03150241 $
 
KMOB - Mobile/Bates, Alabama, USA
Distance from station: SW 125mi, 202km
Updated: Mon, 24-Jun-2019 11:56am CDT
Mostly cloudy
Mostly cloudy
 Wind from SSW
Wind: SSW 7 mph , 11 km/h
Temperature: 88°F , 31°C
Heat Index: 96°F , 36°C
Dew Point: 73°F , 23°C
Humidity: 62%
Barometer: 30.00 inHg , 1015.9 hPa
Clouds: Mostly cloudy
Visibility: 7 miles , 11 km
Cloud details: Few Clouds 3000 ft
Partly cloudy 10000 ft
Mostly cloudy 25000 ft
2019/06/24 16:56 KMOB 241656Z 21006KT 7SM FEW030 SCT100 BKN250 31/23 A3000 RMK AO2 SLP157 T03060233
KNMM - Meridian Nas, Mississippi, USA
Distance from station: WNW 151mi, 243km
Updated: Mon, 24-Jun-2019 11:56am CDT
Overcast
Overcast
 Wind from SW
Wind: SW 10 mph , 17 km/h
Temperature: 81°F , 27°C
Heat Index: 85°F , 29°C
Dew Point: 70°F , 21°C
Humidity: 70%
Barometer: 29.93 inHg , 1013.5 hPa
Clouds: Overcast
Visibility: 10 miles , 16 km
Cloud details: Partly cloudy 11000 ft
Mostly cloudy 19000 ft
Mostly cloudy 25000 ft
Overcast 35000 ft
2019/06/24 16:56 KNMM 241656Z 22009KT 10SM SCT110 BKN190 BKN250 OVC350 27/21 A2993 RMK AO2 SLP140 T02720211
KQHY - Hurlbert (Ft Walton Bch), Florida, USA
Distance from station: S 94mi, 151km
Updated: Mon, 24-Jun-2019 11:56am CDT
Few Clouds
Few Clouds
 Wind from WSW
Wind: WSW 8 mph , 13 km/h
Temperature: 88°F , 31°C
Heat Index: 103°F , 39°C
Dew Point: 79°F , 26°C
Humidity: 75%
Barometer: 30.03 inHg , 1016.9 hPa
Clouds: Few Clouds
Visibility: 10 miles , 16 km
Cloud details: Few Clouds 3300 ft
Few Clouds 20000 ft
2019/06/24 16:56 KQHY 241656Z AUTO 25007KT 10SM FEW033 FEW200 31/26 A3003 RMK AO2 RAB15E25SHRAB25E41 SLP175 T03070259 $
 
KTCL - Tuscaloosa, Alabama, USA
Distance from station: NNW 129mi, 207km
Updated: Mon, 24-Jun-2019 11:53am CDT
Clear
Clear
 Wind from S
Wind: S 10 mph , 17 km/h, Gust: 23 mph , 37 km/h
Temperature: 86°F , 30°C
Heat Index: 95°F , 35°C
Dew Point: 75°F , 24°C
Humidity: 70%
Barometer: 29.89 inHg , 1012.2 hPa
Clouds: Clear
Visibility: 9 miles , 14 km
2019/06/24 16:53 KTCL 241653Z 19009G20KT 9SM CLR 30/24 A2989 RMK AO2 SLP118 T03000244
KECP - Panama City, Florida, USA
Distance from station: SSE 122mi, 196km
Updated: Mon, 24-Jun-2019 11:53am CDT
Mostly cloudy
Mostly cloudy
 Wind from SSW
Wind: SSW 13 mph , 20 km/h
Temperature: 90°F , 32°C
Heat Index: 101°F , 38°C
Dew Point: 75°F , 24°C
Humidity: 63%
Barometer: 30.02 inHg , 1016.6 hPa
Clouds: Mostly cloudy
Visibility: 8 miles , 13 km
Cloud details: Mostly cloudy 2700 ft
Mostly cloudy 3700 ft
2019/06/24 16:53 KECP 241653Z 21011KT 8SM BKN027 BKN037 32/24 A3002 RMK AO2 SLP175 T03170244
KCBM - Columbus Afb, Mississippi, USA
Distance from station: NW 175mi, 282km
Updated: Mon, 24-Jun-2019 11:56am CDT
Partly cloudy
Partly cloudy
 Wind from W
Wind: W 9 mph , 15 km/h
Temperature: 84°F , 29°C
Heat Index: 90°F , 32°C
Dew Point: 73°F , 23°C
Humidity: 70%
Barometer: 29.89 inHg , 1012.2 hPa
Clouds: Partly cloudy
Visibility: 10 miles , 16 km
Cloud details: Few Clouds 14000 ft
Few Clouds 17000 ft
Partly cloudy 20000 ft
2019/06/24 16:56 KCBM 241656Z AUTO 26008KT 10SM FEW140 FEW170 SCT200 29/23 A2989 RMK AO2 SLP122 T02920231
 
KBHM - Birmingham, Alabama, USA
Distance from station: N 132mi, 212km
Updated: Mon, 24-Jun-2019 11:53am CDT
Overcast
Overcast
 Wind from SSW
Wind: SSW 15 mph , 24 km/h
Temperature: 84°F , 29°C
Heat Index: 90°F , 32°C
Dew Point: 73°F , 23°C
Humidity: 70%
Barometer: 29.93 inHg , 1013.5 hPa
Clouds: Overcast
Visibility: 10 miles , 16 km
Cloud details: Partly cloudy 2900 ft
Mostly cloudy 15000 ft
Overcast 25000 ft
2019/06/24 16:53 KBHM 241653Z 20013KT 10SM SCT029 BKN150 OVC250 29/23 A2993 RMK AO2 SLP124 T02940228
KAAF - Apalachicola, Florida, USA
Distance from station: SSE 156mi, 250km
Updated: Mon, 24-Jun-2019 11:53am CDT
Light rain, Clear
Light rain, Clear
 Wind from WSW
Wind: WSW 16 mph , 26 km/h, Gust: 23 mph , 37 km/h
Temperature: 90°F , 32°C
Heat Index: 101°F , 38°C
Dew Point: 75°F , 24°C
Humidity: 63%
Barometer: 30.04 inHg , 1017.3 hPa
Summary: Light rain
Clouds: Clear
Visibility: 10 miles , 16 km
2019/06/24 16:53 KAAF 241653Z AUTO 25014G20KT 10SM -RA CLR 32/24 A3004 RMK AO2 RAB49 SLP172 P0000 T03220244
KATL - Atlanta, Georgia, USA
Distance from station: NE 177mi, 287km
Updated: Mon, 24-Jun-2019 11:52am CDT
Mostly cloudy
Mostly cloudy
 Wind from SW
Wind: SW 16 mph , 26 km/h, Gust: 21 mph , 33 km/h
Temperature: 84°F , 29°C
Heat Index: 89°F , 32°C
Dew Point: 72°F , 22°C
Humidity: 66%
Barometer: 29.97 inHg , 1014.9 hPa
Clouds: Mostly cloudy
Visibility: 10 miles , 16 km
Cloud details: Few Clouds 3500 ft
Partly cloudy 4500 ft
Mostly cloudy 25000 ft
2019/06/24 16:52 KATL 241652Z 22014G18KT 10SM FEW035 SCT045 BKN250 29/22 A2997 RMK AO2 SLP138 T02940217
 
KGPT - Gulfport, Mississippi, USA
Distance from station: SW 192mi, 309km
Updated: Mon, 24-Jun-2019 11:53am CDT
Clear
Clear
 Wind from W
Wind: W 8 mph , 13 km/h
Temperature: 88°F , 31°C
Heat Index: 92°F , 33°C
Dew Point: 68°F , 20°C
Humidity: 52%
Barometer: 30.00 inHg , 1015.9 hPa
Clouds: Clear
Visibility: 10 miles , 16 km
2019/06/24 16:53 KGPT 241653Z 27007KT 10SM CLR 31/20 A3000 RMK AO2 SLP158 T03060200
KNEW - New Orleans/Lake, Louisiana, USA
Distance from station: SW 255mi, 410km
Updated: Mon, 24-Jun-2019 11:53am CDT
Mostly cloudy
Mostly cloudy
 Wind from W
Wind: W 5 mph , 7 km/h
Temperature: 81°F , 27°C
Heat Index: 85°F , 29°C
Dew Point: 70°F , 21°C
Humidity: 70%
Barometer: 30.04 inHg , 1017.3 hPa
Clouds: Mostly cloudy
Visibility: 10 miles , 16 km
Cloud details: Mostly cloudy 6500 ft
2019/06/24 16:53 KNEW 241653Z 26004KT 10SM BKN065 27/21 A3004 RMK AO2 SLP165 T02670206
KP92 - Salt Point, Louisiana, USA
Distance from station: SW 347mi, 559km
Updated: Mon, 24-Jun-2019 11:53am CDT

 
Temperature: 73°F , 23°C
Dew Point: 70°F , 21°C
Humidity: 89%
Barometer: 30.04 inHg , 1017.3 hPa
2019/06/24 16:53 KP92 241653Z AUTO 23/21 A3004 RMK AO1 SLP172 T02280206 $